createdAt,value
2019-02-10T00:01:01.450Z,996.34
2019-02-10T00:02:06.961Z,996.29
2019-02-10T00:03:12.470Z,996.27
2019-02-10T00:04:17.981Z,996.26
2019-02-10T00:05:24.502Z,996.18
2019-02-10T00:06:29.019Z,996.22
2019-02-10T00:07:34.494Z,996.13
2019-02-10T00:08:40.007Z,996.13
2019-02-10T00:09:45.525Z,996.12
2019-02-10T00:10:51.018Z,996.12
2019-02-10T00:11:57.516Z,996.13
2019-02-10T00:13:02.018Z,996.07
2019-02-10T00:14:07.559Z,996.08
2019-02-10T00:15:13.928Z,996.10
2019-02-10T00:16:18.587Z,996.05
2019-02-10T00:17:24.087Z,996.03
2019-02-10T00:18:30.588Z,995.97
2019-02-10T00:19:35.100Z,996.00
2019-02-10T00:20:40.609Z,995.95
2019-02-10T00:21:46.125Z,995.91
2019-02-10T00:22:51.634Z,995.85
2019-02-10T00:23:57.125Z,995.85
2019-02-10T00:25:03.626Z,995.81
2019-02-10T00:26:08.174Z,995.75
2019-02-10T00:27:13.607Z,995.74
2019-02-10T00:28:19.186Z,995.65
2019-02-10T00:29:24.663Z,995.67
2019-02-10T00:30:30.189Z,995.65
2019-02-10T00:31:36.702Z,995.61
2019-02-10T00:32:41.223Z,995.61
2019-02-10T00:33:46.698Z,995.60
2019-02-10T00:34:52.218Z,995.59
2019-02-10T00:35:57.722Z,995.53
2019-02-10T00:37:03.242Z,995.50
2019-02-10T00:38:09.743Z,995.53
2019-02-10T00:39:14.253Z,995.51
2019-02-10T00:40:19.742Z,995.45
2019-02-10T00:41:25.270Z,995.38
2019-02-10T00:42:30.738Z,995.35
2019-02-10T00:43:36.307Z,995.29
2019-02-10T00:44:42.790Z,995.33
2019-02-10T00:45:47.299Z,995.30
2019-02-10T00:46:52.831Z,995.27
2019-02-10T00:47:58.328Z,995.29
2019-02-10T00:49:03.834Z,995.29
2019-02-10T00:50:09.353Z,995.29
2019-02-10T00:51:15.851Z,995.28
2019-02-10T00:52:20.345Z,995.26
2019-02-10T00:53:25.843Z,995.27
2019-02-10T00:54:31.367Z,995.17
2019-02-10T00:55:36.879Z,995.21
2019-02-10T00:56:42.407Z,995.18
2019-02-10T00:57:48.917Z,995.06
2019-02-10T00:58:53.416Z,995.06
2019-02-10T00:59:58.906Z,995.03
2019-02-10T01:01:04.422Z,995.03
2019-02-10T01:02:09.933Z,994.94
2019-02-10T01:03:15.447Z,994.95
2019-02-10T01:04:21.970Z,994.95
2019-02-10T01:05:26.512Z,994.92
2019-02-10T01:06:31.990Z,994.97
2019-02-10T01:07:37.476Z,994.94
2019-02-10T01:08:42.971Z,994.94
2019-02-10T01:09:48.478Z,994.90
2019-02-10T01:10:55.006Z,994.93
2019-02-10T01:11:59.502Z,994.86
2019-02-10T01:13:05.022Z,994.81
2019-02-10T01:14:10.519Z,994.79
2019-02-10T01:15:16.011Z,994.81
2019-02-10T01:16:21.531Z,994.70
2019-02-10T01:17:28.086Z,994.73
2019-02-10T01:18:32.580Z,994.70
2019-02-10T01:19:38.080Z,994.64
2019-02-10T01:20:43.590Z,994.54
2019-02-10T01:21:49.103Z,994.59
2019-02-10T01:22:54.617Z,994.51
2019-02-10T01:24:01.172Z,994.52
2019-02-10T01:25:05.628Z,994.41
2019-02-10T01:26:11.111Z,994.35
2019-02-10T01:27:16.630Z,994.40
2019-02-10T01:28:22.129Z,994.36
2019-02-10T01:29:27.648Z,994.34
2019-02-10T01:30:34.157Z,994.33
2019-02-10T01:31:38.658Z,994.28
2019-02-10T01:32:44.196Z,994.31
2019-02-10T01:33:49.675Z,994.26
2019-02-10T01:34:55.198Z,994.24
2019-02-10T01:36:00.705Z,994.22
2019-02-10T01:37:07.220Z,994.23
2019-02-10T01:38:11.725Z,994.17
2019-02-10T01:39:17.238Z,994.16
2019-02-10T01:40:22.742Z,994.10
2019-02-10T01:41:28.228Z,994.08
2019-02-10T01:42:33.754Z,994.05
2019-02-10T01:43:40.279Z,994.05
2019-02-10T01:44:44.732Z,994.03
2019-02-10T01:45:50.280Z,993.97
2019-02-10T01:46:55.808Z,993.99
2019-02-10T01:48:01.293Z,993.96
2019-02-10T01:49:06.808Z,994.02
2019-02-10T01:50:13.327Z,993.98
2019-02-10T01:51:17.826Z,993.93
2019-02-10T01:52:23.336Z,993.92
2019-02-10T01:53:28.845Z,993.85
2019-02-10T01:54:34.352Z,993.84
2019-02-10T01:55:39.852Z,993.90
2019-02-10T01:56:46.378Z,993.84
2019-02-10T01:57:50.852Z,993.83
2019-02-10T01:58:56.403Z,993.81
2019-02-10T02:00:01.875Z,993.86
2019-02-10T02:01:07.410Z,993.80
2019-02-10T02:02:12.906Z,993.75
2019-02-10T02:03:19.436Z,993.75
2019-02-10T02:04:23.927Z,993.70
2019-02-10T02:05:29.445Z,993.61
2019-02-10T02:06:34.951Z,993.62
2019-02-10T02:07:40.461Z,993.64
2019-02-10T02:08:45.974Z,993.60
2019-02-10T02:09:52.477Z,993.62
2019-02-10T02:10:56.990Z,993.62
2019-02-10T02:12:02.491Z,993.57
2019-02-10T02:13:07.999Z,993.48
2019-02-10T02:14:13.499Z,993.43
2019-02-10T02:15:19.024Z,993.34
2019-02-10T02:16:25.532Z,993.38
2019-02-10T02:17:30.045Z,993.34
2019-02-10T02:18:35.547Z,993.29
2019-02-10T02:19:41.056Z,993.22
2019-02-10T02:20:46.579Z,993.15
2019-02-10T02:21:52.067Z,993.13
2019-02-10T02:22:58.583Z,993.12
2019-02-10T02:24:03.083Z,993.04
2019-02-10T02:25:08.620Z,993.06
2019-02-10T02:26:14.105Z,993.00
2019-02-10T02:27:19.621Z,992.89
2019-02-10T02:28:25.139Z,992.81
2019-02-10T02:29:31.642Z,992.71
2019-02-10T02:30:36.152Z,992.68
2019-02-10T02:31:41.669Z,992.74
2019-02-10T02:32:47.172Z,992.76
2019-02-10T02:33:52.674Z,992.73
2019-02-10T02:34:58.182Z,992.72
2019-02-10T02:36:04.715Z,992.67
2019-02-10T02:37:09.200Z,992.60
2019-02-10T02:38:14.697Z,992.57
2019-02-10T02:39:20.214Z,992.53
2019-02-10T02:40:25.705Z,992.49
2019-02-10T02:41:31.223Z,992.43
2019-02-10T02:42:37.756Z,992.40
2019-02-10T02:43:42.254Z,992.36
2019-02-10T02:44:47.749Z,992.30
2019-02-10T02:45:53.257Z,992.28
2019-02-10T02:46:58.773Z,992.27
2019-02-10T02:48:04.251Z,992.22
2019-02-10T02:49:10.796Z,992.22
2019-02-10T02:50:15.272Z,992.14
2019-02-10T02:51:20.804Z,992.04
2019-02-10T02:52:26.298Z,992.11
2019-02-10T02:53:31.817Z,992.05
2019-02-10T02:54:37.317Z,992.04
2019-02-10T02:55:43.858Z,991.92
2019-02-10T02:56:48.344Z,991.91
2019-02-10T02:57:53.846Z,991.97
2019-02-10T02:58:59.356Z,991.91
2019-02-10T03:00:04.863Z,991.86
2019-02-10T03:01:10.396Z,991.81
2019-02-10T03:02:16.899Z,991.76
2019-02-10T03:03:21.402Z,991.72
2019-02-10T03:04:26.908Z,991.66
2019-02-10T03:05:32.424Z,991.61
2019-02-10T03:06:37.929Z,991.60
2019-02-10T03:07:43.423Z,991.65
2019-02-10T03:08:49.948Z,991.64
2019-02-10T03:09:54.444Z,991.61
2019-02-10T03:10:59.960Z,991.59
2019-02-10T03:12:05.444Z,991.63
2019-02-10T03:13:10.968Z,991.55
2019-02-10T03:14:16.504Z,991.45
2019-02-10T03:15:23.013Z,991.48
2019-02-10T03:16:27.502Z,991.48
2019-02-10T03:17:33.011Z,991.41
2019-02-10T03:18:38.527Z,991.34
2019-02-10T03:19:44.028Z,991.27
2019-02-10T03:20:49.531Z,991.26
2019-02-10T03:21:56.055Z,991.17
2019-02-10T03:23:00.563Z,991.05
2019-02-10T03:24:06.050Z,991.10
2019-02-10T03:25:11.581Z,991.07
2019-02-10T03:26:17.071Z,991.02
2019-02-10T03:27:22.607Z,990.97
2019-02-10T03:28:29.106Z,990.94
2019-02-10T03:29:33.614Z,990.91
2019-02-10T03:30:39.100Z,990.90
2019-02-10T03:31:44.634Z,990.87
2019-02-10T03:32:50.079Z,990.83
2019-02-10T03:33:55.650Z,990.80
2019-02-10T03:35:02.154Z,990.74
2019-02-10T03:36:06.663Z,990.66
2019-02-10T03:37:12.150Z,990.66
2019-02-10T03:38:17.652Z,990.62
2019-02-10T03:39:23.136Z,990.62
2019-02-10T03:40:28.676Z,990.59
2019-02-10T03:41:35.180Z,990.56
2019-02-10T03:42:39.705Z,990.47
2019-02-10T03:43:45.205Z,990.49
2019-02-10T03:44:50.731Z,990.35
2019-02-10T03:45:56.214Z,990.37
2019-02-10T03:47:01.733Z,990.27
2019-02-10T03:48:08.261Z,990.27
2019-02-10T03:49:12.752Z,990.22
2019-02-10T03:50:18.265Z,990.22
2019-02-10T03:51:23.769Z,990.11
2019-02-10T03:52:29.265Z,990.06
2019-02-10T03:53:34.774Z,990.09
2019-02-10T03:54:41.286Z,990.05
2019-02-10T03:55:45.800Z,990.00
2019-02-10T03:56:51.311Z,989.96
2019-02-10T03:57:56.819Z,990.01
2019-02-10T03:59:02.314Z,989.90
2019-02-10T04:00:07.850Z,989.88
2019-02-10T04:01:14.358Z,989.81
2019-02-10T04:02:18.849Z,989.86
2019-02-10T04:03:24.338Z,989.76
2019-02-10T04:04:29.871Z,989.73
2019-02-10T04:05:35.402Z,989.69
2019-02-10T04:06:40.878Z,989.68
2019-02-10T04:07:47.392Z,989.68
2019-02-10T04:08:51.888Z,989.65
2019-02-10T04:09:57.392Z,989.58
2019-02-10T04:11:02.900Z,989.56
2019-02-10T04:12:08.402Z,989.51
2019-02-10T04:13:13.926Z,989.43
2019-02-10T04:14:20.429Z,989.45
2019-02-10T04:15:24.923Z,989.46
2019-02-10T04:16:30.454Z,989.39
2019-02-10T04:17:35.962Z,989.37
2019-02-10T04:18:41.452Z,989.38
2019-02-10T04:19:46.962Z,989.36
2019-02-10T04:20:53.479Z,989.34
2019-02-10T04:21:57.969Z,989.30
2019-02-10T04:23:03.498Z,989.23
2019-02-10T04:24:08.991Z,989.22
2019-02-10T04:25:14.523Z,989.17
2019-02-10T04:26:19.983Z,989.04
2019-02-10T04:27:26.523Z,989.10
2019-02-10T04:28:31.024Z,989.05
2019-02-10T04:29:36.536Z,989.02
2019-02-10T04:30:42.090Z,989.02
2019-02-10T04:31:47.554Z,988.88
2019-02-10T04:32:53.085Z,988.87
2019-02-10T04:33:59.583Z,988.81
2019-02-10T04:35:04.090Z,988.79
2019-02-10T04:36:09.592Z,988.80
2019-02-10T04:37:15.077Z,988.71
2019-02-10T04:38:20.610Z,988.64
2019-02-10T04:39:26.097Z,988.65
2019-02-10T04:40:32.618Z,988.53
2019-02-10T04:41:37.112Z,988.46
2019-02-10T04:42:42.632Z,988.45
2019-02-10T04:43:48.142Z,988.40
2019-02-10T04:44:53.643Z,988.43
2019-02-10T04:45:59.164Z,988.24
2019-02-10T04:47:05.666Z,988.24
2019-02-10T04:48:10.162Z,988.18
2019-02-10T04:49:15.686Z,988.07
2019-02-10T04:50:21.188Z,988.07
2019-02-10T04:51:26.682Z,987.90
2019-02-10T04:52:32.190Z,987.99
2019-02-10T04:53:38.707Z,987.98
2019-02-10T04:54:43.204Z,987.94
2019-02-10T04:55:48.708Z,987.68
2019-02-10T04:56:54.228Z,987.64
2019-02-10T04:57:59.731Z,987.57
2019-02-10T04:59:05.239Z,987.64
2019-02-10T05:00:11.755Z,987.74
2019-02-10T05:01:16.254Z,987.65
2019-02-10T05:02:21.778Z,987.61
2019-02-10T05:03:27.280Z,987.51
2019-02-10T05:04:32.779Z,987.43
2019-02-10T05:05:38.282Z,987.39
2019-02-10T05:06:44.807Z,987.44
2019-02-10T05:07:54.491Z,987.46
2019-02-10T05:08:54.781Z,987.52
2019-02-10T05:10:00.305Z,987.39
2019-02-10T05:11:05.825Z,987.33
2019-02-10T05:12:11.299Z,987.21
2019-02-10T05:13:17.840Z,987.27
2019-02-10T05:14:22.344Z,987.24
2019-02-10T05:15:27.863Z,987.14
2019-02-10T05:16:33.401Z,986.98
2019-02-10T05:17:38.860Z,987.00
2019-02-10T05:18:44.372Z,986.96
2019-02-10T05:19:50.897Z,986.83
2019-02-10T05:20:55.391Z,986.78
2019-02-10T05:22:00.901Z,986.71
2019-02-10T05:23:06.403Z,986.64
2019-02-10T05:24:11.905Z,986.56
2019-02-10T05:25:17.448Z,986.52
2019-02-10T05:26:23.935Z,986.46
2019-02-10T05:27:28.441Z,986.49
2019-02-10T05:28:33.926Z,986.41
2019-02-10T05:29:39.464Z,986.30
2019-02-10T05:30:44.972Z,986.33
2019-02-10T05:31:50.486Z,986.32
2019-02-10T05:32:57.002Z,986.27
2019-02-10T05:34:01.485Z,986.21
2019-02-10T05:35:06.996Z,986.05
2019-02-10T05:36:12.506Z,986.08
2019-02-10T05:37:17.996Z,986.03
2019-02-10T05:38:23.505Z,986.04
2019-02-10T05:39:30.017Z,985.93
2019-02-10T05:40:34.548Z,985.95
2019-02-10T05:41:40.031Z,985.88
2019-02-10T05:42:45.547Z,985.81
2019-02-10T05:43:51.067Z,985.72
2019-02-10T05:44:56.568Z,985.77
2019-02-10T05:46:03.093Z,985.79
2019-02-10T05:47:07.581Z,985.68
2019-02-10T05:48:13.079Z,985.53
2019-02-10T05:49:18.594Z,985.53
2019-02-10T05:50:24.118Z,985.49
2019-02-10T05:51:29.559Z,985.53
2019-02-10T05:52:36.112Z,985.44
2019-02-10T05:53:40.609Z,985.39
2019-02-10T05:54:46.131Z,985.32
2019-02-10T05:55:51.630Z,985.32
2019-02-10T05:56:57.146Z,985.28
2019-02-10T05:58:02.643Z,985.28
2019-02-10T05:59:09.186Z,985.11
2019-02-10T06:00:13.675Z,985.04
2019-02-10T06:01:19.179Z,985.10
2019-02-10T06:02:24.675Z,985.09
2019-02-10T06:03:30.183Z,985.04
2019-02-10T06:04:35.708Z,984.92
2019-02-10T06:05:42.225Z,984.95
2019-02-10T06:06:46.704Z,985.15
2019-02-10T06:07:52.215Z,984.90
2019-02-10T06:08:57.709Z,984.92
2019-02-10T06:10:03.219Z,984.90
2019-02-10T06:11:08.738Z,984.91
2019-02-10T06:12:15.270Z,984.72
2019-02-10T06:13:19.752Z,984.64
2019-02-10T06:14:25.285Z,984.68
2019-02-10T06:15:30.769Z,984.73
2019-02-10T06:16:36.287Z,984.67
2019-02-10T06:17:41.777Z,984.53
2019-02-10T06:18:48.302Z,984.57
2019-02-10T06:19:52.818Z,984.63
2019-02-10T06:20:58.315Z,984.54
2019-02-10T06:22:03.823Z,984.46
2019-02-10T06:23:09.337Z,984.53
2019-02-10T06:24:14.848Z,984.55
2019-02-10T06:25:21.357Z,984.48
2019-02-10T06:26:25.846Z,984.51
2019-02-10T06:27:31.357Z,984.46
2019-02-10T06:28:36.890Z,984.45
2019-02-10T06:29:42.387Z,984.55
2019-02-10T06:30:47.882Z,984.48
2019-02-10T06:31:54.407Z,984.40
2019-02-10T06:32:58.905Z,984.36
2019-02-10T06:34:04.414Z,984.43
2019-02-10T06:35:09.907Z,984.44
2019-02-10T06:36:16.704Z,984.35
2019-02-10T06:37:20.927Z,984.34
2019-02-10T06:38:27.448Z,984.30
2019-02-10T06:39:31.957Z,984.28
2019-02-10T06:40:37.440Z,984.20
2019-02-10T06:41:42.967Z,984.16
2019-02-10T06:42:48.456Z,984.19
2019-02-10T06:43:53.950Z,984.12
2019-02-10T06:45:00.501Z,984.09
2019-02-10T06:46:04.961Z,984.10
2019-02-10T06:47:10.502Z,984.13
2019-02-10T06:48:16.018Z,984.09
2019-02-10T06:49:21.519Z,984.04
2019-02-10T06:50:27.007Z,984.02
2019-02-10T06:51:33.552Z,983.99
2019-02-10T06:52:38.080Z,983.83
2019-02-10T06:53:43.544Z,983.93
2019-02-10T06:54:49.050Z,983.85
2019-02-10T06:55:54.561Z,983.75
2019-02-10T06:57:00.078Z,983.65
2019-02-10T06:58:06.580Z,983.73
2019-02-10T06:59:11.071Z,983.62
2019-02-10T07:00:16.600Z,983.63
2019-02-10T07:01:22.127Z,983.55
2019-02-10T07:02:27.611Z,983.59
2019-02-10T07:03:33.121Z,983.55
2019-02-10T07:04:39.634Z,983.57
2019-02-10T07:05:44.130Z,983.48
2019-02-10T07:06:49.650Z,983.45
2019-02-10T07:07:55.163Z,983.48
2019-02-10T07:09:00.663Z,983.48
2019-02-10T07:10:06.164Z,983.46
2019-02-10T07:11:12.672Z,983.39
2019-02-10T07:12:17.165Z,983.34
2019-02-10T07:13:22.713Z,983.29
2019-02-10T07:14:28.183Z,983.36
2019-02-10T07:15:33.706Z,983.26
2019-02-10T07:16:39.218Z,983.26
2019-02-10T07:17:45.750Z,983.17
2019-02-10T07:18:50.244Z,983.05
2019-02-10T07:19:55.752Z,983.10
2019-02-10T07:21:01.248Z,983.14
2019-02-10T07:22:06.762Z,983.04
2019-02-10T07:23:12.274Z,983.02
2019-02-10T07:24:18.781Z,983.05
2019-02-10T07:25:23.242Z,982.91
2019-02-10T07:26:28.791Z,982.79
2019-02-10T07:27:34.295Z,982.88
2019-02-10T07:28:39.807Z,982.80
2019-02-10T07:29:45.332Z,982.78
2019-02-10T07:30:51.832Z,982.76
2019-02-10T07:31:56.336Z,982.65
2019-02-10T07:33:01.861Z,982.59
2019-02-10T07:34:07.372Z,982.69
2019-02-10T07:35:12.856Z,982.69
2019-02-10T07:36:18.359Z,982.60
2019-02-10T07:37:24.883Z,982.59
2019-02-10T07:38:29.366Z,982.48
2019-02-10T07:39:34.879Z,982.42
2019-02-10T07:40:40.416Z,982.29
2019-02-10T07:41:45.910Z,982.38
2019-02-10T07:42:51.402Z,982.30
2019-02-10T07:43:57.940Z,982.36
2019-02-10T07:45:02.418Z,982.35
2019-02-10T07:46:07.939Z,982.20
2019-02-10T07:47:13.450Z,982.18
2019-02-10T07:48:18.955Z,982.27
2019-02-10T07:49:24.440Z,982.23
2019-02-10T07:50:30.981Z,982.11
2019-02-10T07:51:35.473Z,982.15
2019-02-10T07:52:41.016Z,982.03
2019-02-10T07:53:46.505Z,982.00
2019-02-10T07:54:52.008Z,981.91
2019-02-10T07:55:57.511Z,982.00
2019-02-10T07:57:04.023Z,981.86
2019-02-10T07:58:08.525Z,981.84
2019-02-10T07:59:14.031Z,981.88
2019-02-10T08:00:19.537Z,981.76
2019-02-10T08:01:25.053Z,981.92
2019-02-10T08:02:30.581Z,981.79
2019-02-10T08:03:37.086Z,981.73
2019-02-10T08:04:41.543Z,981.87
2019-02-10T08:05:47.098Z,981.65
2019-02-10T08:06:52.625Z,981.71
2019-02-10T08:07:58.110Z,981.68
2019-02-10T08:09:03.608Z,981.81
2019-02-10T08:10:10.125Z,981.68
2019-02-10T08:11:14.615Z,981.76
2019-02-10T08:12:20.129Z,981.82
2019-02-10T08:13:25.649Z,981.73
2019-02-10T08:14:31.166Z,981.65
2019-02-10T08:15:36.658Z,981.68
2019-02-10T08:16:43.251Z,981.67
2019-02-10T08:17:47.684Z,981.75
2019-02-10T08:18:53.187Z,981.64
2019-02-10T08:19:58.699Z,981.62
2019-02-10T08:21:04.272Z,981.62
2019-02-10T08:22:09.705Z,981.64
2019-02-10T08:23:16.251Z,981.59
2019-02-10T08:24:20.742Z,981.64
2019-02-10T08:25:26.251Z,981.56
2019-02-10T08:26:31.735Z,981.41
2019-02-10T08:27:37.255Z,981.61
2019-02-10T08:28:42.795Z,981.50
2019-02-10T08:29:49.322Z,981.44
2019-02-10T08:30:53.776Z,981.54
2019-02-10T08:31:59.302Z,981.42
2019-02-10T08:33:04.802Z,981.45
2019-02-10T08:34:10.323Z,981.61
2019-02-10T08:35:15.795Z,981.53
2019-02-10T08:36:22.352Z,981.49
2019-02-10T08:37:26.840Z,981.45
2019-02-10T08:38:32.361Z,981.52
2019-02-10T08:39:37.856Z,981.50
2019-02-10T08:40:43.834Z,981.45
2019-02-10T08:41:48.861Z,981.44
2019-02-10T08:42:55.388Z,981.46
2019-02-10T08:43:59.891Z,981.44
2019-02-10T08:45:05.380Z,981.32
2019-02-10T08:46:10.908Z,981.37
2019-02-10T08:47:16.452Z,981.30
2019-02-10T08:49:28.976Z,981.27
2019-02-10T08:50:33.486Z,981.22
2019-02-10T08:51:38.964Z,981.12
2019-02-10T08:52:51.568Z,981.15
2019-02-10T08:53:49.994Z,981.06
2019-02-10T08:55:57.599Z,981.01
2019-02-10T08:57:03.080Z,981.10
2019-02-10T08:59:12.657Z,981.15
2019-02-10T09:00:18.158Z,981.12
2019-02-10T09:01:23.673Z,981.21
2019-02-10T09:02:29.170Z,981.03
2019-02-10T09:03:34.676Z,981.04
2019-02-10T09:04:40.194Z,981.05
2019-02-10T09:05:45.694Z,980.97
2019-02-10T09:06:51.202Z,981.08
2019-02-10T09:07:56.708Z,981.01
2019-02-10T09:09:02.820Z,981.05
2019-02-10T09:10:07.731Z,980.88
2019-02-10T09:11:13.236Z,980.93
2019-02-10T09:12:18.748Z,980.88
2019-02-10T09:13:24.251Z,980.86
2019-02-10T09:14:29.759Z,980.94
2019-02-10T09:15:35.265Z,980.89
2019-02-10T09:16:40.785Z,980.85
2019-02-10T09:17:46.276Z,980.91
2019-02-10T09:18:51.791Z,980.92
2019-02-10T09:19:57.342Z,981.02
2019-02-10T09:21:02.810Z,980.94
2019-02-10T09:22:08.315Z,980.86
2019-02-10T09:23:13.825Z,980.97
2019-02-10T09:24:19.349Z,980.95
2019-02-10T09:25:24.841Z,980.86
2019-02-10T09:26:30.349Z,980.95
2019-02-10T09:27:35.862Z,980.96
2019-02-10T09:28:41.394Z,980.95
2019-02-10T09:29:46.895Z,980.90
2019-02-10T09:30:52.395Z,980.96
2019-02-10T09:31:57.910Z,980.84
2019-02-10T09:33:03.408Z,980.85
2019-02-10T09:34:08.913Z,980.75
2019-02-10T09:35:14.420Z,980.86
2019-02-10T09:36:19.941Z,980.85
2019-02-10T09:37:25.450Z,980.82
2019-02-10T09:38:30.962Z,980.85
2019-02-10T09:39:36.478Z,980.83
2019-02-10T09:40:41.986Z,980.82
2019-02-10T09:41:47.492Z,980.93
2019-02-10T09:42:53.003Z,980.85
2019-02-10T09:43:58.508Z,980.94
2019-02-10T09:45:04.009Z,980.81
2019-02-10T09:46:09.525Z,980.88
2019-02-10T09:47:15.025Z,980.89
2019-02-10T09:48:20.538Z,980.92
2019-02-10T09:49:26.070Z,980.91
2019-02-10T09:50:31.558Z,980.85
2019-02-10T09:51:37.063Z,980.85
2019-02-10T09:52:42.575Z,980.85
2019-02-10T09:53:48.092Z,980.79
2019-02-10T09:54:53.608Z,980.88
2019-02-10T09:55:59.104Z,980.87
2019-02-10T09:57:04.625Z,980.92
2019-02-10T09:58:10.122Z,980.90
2019-02-10T09:59:15.639Z,980.85
2019-02-10T10:00:21.146Z,980.93
2019-02-10T10:01:26.651Z,980.78
2019-02-10T10:02:32.157Z,980.79
2019-02-10T10:03:37.671Z,980.73
2019-02-10T10:04:43.188Z,980.78
2019-02-10T10:05:48.691Z,980.89
2019-02-10T10:06:54.200Z,980.76
2019-02-10T10:07:59.710Z,980.77
2019-02-10T10:09:05.228Z,980.79
2019-02-10T10:10:10.729Z,980.77
2019-02-10T10:11:16.241Z,980.86
2019-02-10T10:12:21.744Z,980.84
2019-02-10T10:13:27.266Z,980.86
2019-02-10T10:14:32.769Z,980.78
2019-02-10T10:15:38.272Z,980.89
2019-02-10T10:16:43.789Z,980.84
2019-02-10T10:17:49.304Z,980.80
2019-02-10T10:18:54.804Z,980.80
2019-02-10T10:20:00.307Z,980.78
2019-02-10T10:21:05.819Z,980.76
2019-02-10T10:22:11.325Z,980.82
2019-02-10T10:23:16.841Z,980.77
2019-02-10T10:24:22.348Z,980.73
2019-02-10T10:25:27.855Z,980.69
2019-02-10T10:26:33.367Z,980.60
2019-02-10T10:27:38.873Z,980.65
2019-02-10T10:28:44.384Z,980.73
2019-02-10T10:29:49.906Z,980.62
2019-02-10T10:30:55.402Z,980.68
2019-02-10T10:32:00.913Z,980.67
2019-02-10T10:33:06.433Z,980.68
2019-02-10T10:34:11.936Z,980.65
2019-02-10T10:35:17.445Z,980.68
2019-02-10T10:36:22.962Z,980.60
2019-02-10T10:37:28.488Z,980.64
2019-02-10T10:38:33.968Z,980.61
2019-02-10T10:39:39.502Z,980.49
2019-02-10T10:40:44.988Z,980.58
2019-02-10T10:41:50.506Z,980.58
2019-02-10T10:42:56.016Z,980.57
2019-02-10T10:44:01.520Z,980.51
2019-02-10T10:45:07.025Z,980.48
2019-02-10T10:46:12.533Z,980.50
2019-02-10T10:47:18.038Z,980.50
2019-02-10T10:48:23.561Z,980.44
2019-02-10T10:49:29.057Z,980.44
2019-02-10T10:50:34.584Z,980.39
2019-02-10T10:51:40.092Z,980.43
2019-02-10T10:52:45.588Z,980.40
2019-02-10T10:53:51.093Z,980.41
2019-02-10T10:54:56.617Z,980.40
2019-02-10T10:56:02.118Z,980.43
2019-02-10T10:57:07.633Z,980.42
2019-02-10T10:58:13.141Z,980.44
2019-02-10T10:59:18.661Z,980.43
2019-02-10T11:00:24.160Z,980.44
2019-02-10T11:01:29.667Z,980.43
2019-02-10T11:02:35.172Z,980.41
2019-02-10T11:03:40.689Z,980.37
2019-02-10T11:04:46.196Z,980.34
2019-02-10T11:05:51.705Z,980.34
2019-02-10T11:06:57.224Z,980.29
2019-02-10T11:08:02.742Z,980.25
2019-02-10T11:09:08.238Z,980.32
2019-02-10T11:10:13.743Z,980.27
2019-02-10T11:11:19.245Z,980.24
2019-02-10T11:12:24.756Z,980.22
2019-02-10T11:13:30.274Z,980.18
2019-02-10T11:14:35.795Z,980.21
2019-02-10T11:15:41.290Z,980.08
2019-02-10T11:16:46.822Z,980.04
2019-02-10T11:17:52.313Z,980.05
2019-02-10T11:18:57.823Z,980.05
2019-02-10T11:20:03.315Z,980.00
2019-02-10T11:21:08.859Z,980.05
2019-02-10T11:22:14.340Z,980.00
2019-02-10T11:23:19.863Z,979.95
2019-02-10T11:24:28.656Z,979.94
2019-02-10T11:25:30.875Z,979.93
2019-02-10T11:26:36.377Z,979.91
2019-02-10T11:27:41.886Z,979.91
2019-02-10T11:28:47.396Z,979.89
2019-02-10T11:29:52.911Z,979.84
2019-02-10T11:30:58.518Z,979.82
2019-02-10T11:32:03.930Z,979.79
2019-02-10T11:33:09.437Z,979.78
2019-02-10T11:34:14.946Z,979.81
2019-02-10T11:35:20.452Z,979.77
2019-02-10T11:36:25.962Z,979.79
2019-02-10T11:37:31.474Z,979.82
2019-02-10T11:38:36.983Z,979.74
2019-02-10T11:39:43.988Z,979.67
2019-02-10T11:40:47.999Z,979.64
2019-02-10T11:41:53.512Z,979.56
2019-02-10T11:43:00.105Z,979.63
2019-02-10T11:44:04.773Z,979.59
2019-02-10T11:45:10.054Z,979.63
2019-02-10T11:46:15.547Z,979.59
2019-02-10T11:47:21.056Z,979.57
2019-02-10T11:48:26.576Z,979.58
2019-02-10T11:49:32.088Z,979.62
2019-02-10T11:50:37.581Z,979.55
2019-02-10T11:51:43.093Z,979.55
2019-02-10T11:52:48.600Z,979.61
2019-02-10T11:53:54.133Z,979.54
2019-02-10T11:54:59.637Z,979.55
2019-02-10T11:56:05.141Z,979.54
2019-02-10T11:57:10.655Z,979.51
2019-02-10T11:58:16.150Z,979.58
2019-02-10T11:59:21.660Z,979.58
2019-02-10T12:00:27.174Z,979.63
2019-02-10T12:01:32.677Z,979.65
2019-02-10T12:02:38.333Z,979.58
2019-02-10T12:03:43.703Z,979.60
2019-02-10T12:04:49.221Z,979.60
2019-02-10T12:05:54.712Z,979.71
2019-02-10T12:07:00.221Z,979.66
2019-02-10T12:08:05.743Z,979.65
2019-02-10T12:09:11.245Z,979.55
2019-02-10T12:10:16.761Z,979.54
2019-02-10T12:11:22.274Z,979.54
2019-02-10T12:12:27.777Z,979.52
2019-02-10T12:13:33.284Z,979.65
2019-02-10T12:14:38.795Z,979.56
2019-02-10T12:15:44.304Z,979.61
2019-02-10T12:16:49.819Z,979.66
2019-02-10T12:17:55.316Z,979.62
2019-02-10T12:19:00.838Z,979.59
2019-02-10T12:20:06.344Z,979.53
2019-02-10T12:21:11.851Z,979.49
2019-02-10T12:22:17.359Z,979.56
2019-02-10T12:23:22.875Z,979.50
2019-02-10T12:24:28.392Z,979.49
2019-02-10T12:25:33.896Z,979.51
2019-02-10T12:26:39.405Z,979.60
2019-02-10T12:27:44.923Z,979.58
2019-02-10T12:28:50.425Z,979.54
2019-02-10T12:29:55.936Z,979.58
2019-02-10T12:31:01.430Z,979.52
2019-02-10T12:32:06.945Z,979.56
2019-02-10T12:33:12.459Z,979.54
2019-02-10T12:34:17.982Z,979.54
2019-02-10T12:35:23.477Z,979.49
2019-02-10T12:36:28.989Z,979.50
2019-02-10T12:37:34.495Z,979.48
2019-02-10T12:38:40.013Z,979.53
2019-02-10T12:39:45.517Z,979.52
2019-02-10T12:40:51.022Z,979.56
2019-02-10T12:41:56.539Z,979.54
2019-02-10T12:43:02.042Z,979.54
2019-02-10T12:44:07.564Z,979.50
2019-02-10T12:45:13.066Z,979.55
2019-02-10T12:46:18.569Z,979.54
2019-02-10T12:47:24.095Z,979.55
2019-02-10T12:48:29.604Z,979.61
2019-02-10T12:49:35.101Z,979.66
2019-02-10T12:50:40.614Z,979.79
2019-02-10T12:51:46.115Z,979.75
2019-02-10T12:52:51.630Z,979.73
2019-02-10T12:53:57.143Z,979.73
2019-02-10T12:55:02.648Z,979.83
2019-02-10T12:56:08.155Z,979.84
2019-02-10T12:57:13.664Z,979.99
2019-02-10T12:58:19.167Z,979.89
2019-02-10T12:59:24.691Z,979.91
2019-02-10T13:00:30.192Z,979.99
2019-02-10T13:01:35.700Z,979.94
2019-02-10T13:02:41.211Z,980.01
2019-02-10T13:03:46.724Z,980.01
2019-02-10T13:04:52.233Z,979.95
2019-02-10T13:05:57.737Z,979.98
2019-02-10T13:07:03.260Z,979.99
2019-02-10T13:08:08.771Z,980.03
2019-02-10T13:09:14.279Z,980.03
2019-02-10T13:10:19.774Z,979.94
2019-02-10T13:11:25.291Z,979.96
2019-02-10T13:12:30.800Z,980.02
2019-02-10T13:13:36.319Z,979.97
2019-02-10T13:14:41.815Z,980.01
2019-02-10T13:15:47.332Z,979.96
2019-02-10T13:16:52.847Z,980.04
2019-02-10T13:17:58.352Z,980.07
2019-02-10T13:19:03.855Z,979.99
2019-02-10T13:20:09.370Z,980.05
2019-02-10T13:21:14.871Z,980.12
2019-02-10T13:22:20.396Z,980.14
2019-02-10T13:23:25.905Z,980.12
2019-02-10T13:24:31.408Z,980.07
2019-02-10T13:25:36.910Z,980.14
2019-02-10T13:26:42.434Z,980.09
2019-02-10T13:27:47.947Z,980.16
2019-02-10T13:28:53.442Z,980.14
2019-02-10T13:29:58.944Z,980.14
2019-02-10T13:31:04.464Z,980.14
2019-02-10T13:32:09.968Z,980.14
2019-02-10T13:33:15.480Z,980.10
2019-02-10T13:34:20.994Z,980.13
2019-02-10T13:35:26.501Z,980.11
2019-02-10T13:36:32.004Z,980.09
2019-02-10T13:37:37.516Z,980.06
2019-02-10T13:38:43.022Z,980.05
2019-02-10T13:39:48.568Z,980.06
2019-02-10T13:40:54.049Z,980.03